sensor_id;sensor_type;location;lat;lon;timestamp;temperature;humidity
6756;DHT22;3415;51.148;7.014;2024-01-07T00:02:05;2.70;99.90
6756;DHT22;3415;51.148;7.014;2024-01-07T00:06:59;2.60;99.90
6756;DHT22;3415;51.148;7.014;2024-01-07T00:09:26;2.80;99.90
6756;DHT22;3415;51.148;7.014;2024-01-07T00:11:53;2.80;99.90
6756;DHT22;3415;51.148;7.014;2024-01-07T00:14:21;2.60;99.90
6756;DHT22;3415;51.148;7.014;2024-01-07T00:16:48;2.60;99.90
6756;DHT22;3415;51.148;7.014;2024-01-07T00:19:14;2.70;99.90
6756;DHT22;3415;51.148;7.014;2024-01-07T00:21:41;2.70;99.90
6756;DHT22;3415;51.148;7.014;2024-01-07T00:24:08;2.70;99.90
6756;DHT22;3415;51.148;7.014;2024-01-07T00:26:35;2.60;99.90
6756;DHT22;3415;51.148;7.014;2024-01-07T00:29:01;2.50;99.90
6756;DHT22;3415;51.148;7.014;2024-01-07T00:31:29;2.70;99.90
6756;DHT22;3415;51.148;7.014;2024-01-07T00:33:56;2.70;99.90
6756;DHT22;3415;51.148;7.014;2024-01-07T00:36:23;2.60;99.90
6756;DHT22;3415;51.148;7.014;2024-01-07T00:38:50;2.60;99.90
6756;DHT22;3415;51.148;7.014;2024-01-07T00:43:43;2.60;99.90
6756;DHT22;3415;51.148;7.014;2024-01-07T00:46:10;2.60;99.90
6756;DHT22;3415;51.148;7.014;2024-01-07T00:48:38;2.50;99.90
6756;DHT22;3415;51.148;7.014;2024-01-07T00:51:05;2.50;99.90
6756;DHT22;3415;51.148;7.014;2024-01-07T00:53:31;2.50;99.90
6756;DHT22;3415;51.148;7.014;2024-01-07T00:58:25;2.60;99.90
6756;DHT22;3415;51.148;7.014;2024-01-07T01:00:52;2.50;99.90
6756;DHT22;3415;51.148;7.014;2024-01-07T01:03:20;2.50;99.90
6756;DHT22;3415;51.148;7.014;2024-01-07T01:05:48;2.50;99.90
6756;DHT22;3415;51.148;7.014;2024-01-07T01:08:15;2.50;99.90
6756;DHT22;3415;51.148;7.014;2024-01-07T01:10:42;2.50;99.90
6756;DHT22;3415;51.148;7.014;2024-01-07T01:13:09;2.50;99.90
6756;DHT22;3415;51.148;7.014;2024-01-07T01:15:36;2.50;99.90
6756;DHT22;3415;51.148;7.014;2024-01-07T01:18:03;2.40;99.90
6756;DHT22;3415;51.148;7.014;2024-01-07T01:20:30;2.40;99.90
6756;DHT22;3415;51.148;7.014;2024-01-07T01:22:58;2.40;99.90
6756;DHT22;3415;51.148;7.014;2024-01-07T01:25:25;2.50;99.90
6756;DHT22;3415;51.148;7.014;2024-01-07T01:27:52;2.40;99.90
6756;DHT22;3415;51.148;7.014;2024-01-07T01:30:19;2.40;99.90
6756;DHT22;3415;51.148;7.014;2024-01-07T01:32:46;2.50;99.90
6756;DHT22;3415;51.148;7.014;2024-01-07T01:35:13;2.50;99.90
6756;DHT22;3415;51.148;7.014;2024-01-07T01:37:40;2.40;99.90
6756;DHT22;3415;51.148;7.014;2024-01-07T01:40:09;2.30;99.90
6756;DHT22;3415;51.148;7.014;2024-01-07T01:42:36;2.30;99.90
6756;DHT22;3415;51.148;7.014;2024-01-07T01:45:04;2.40;99.90
6756;DHT22;3415;51.148;7.014;2024-01-07T01:47:31;2.30;99.90
6756;DHT22;3415;51.148;7.014;2024-01-07T01:49:58;2.40;99.90
6756;DHT22;3415;51.148;7.014;2024-01-07T01:52:25;2.40;99.90
6756;DHT22;3415;51.148;7.014;2024-01-07T01:54:53;2.20;99.90
6756;DHT22;3415;51.148;7.014;2024-01-07T01:57:22;2.30;99.90
6756;DHT22;3415;51.148;7.014;2024-01-07T01:59:51;2.20;99.90
6756;DHT22;3415;51.148;7.014;2024-01-07T02:02:18;2.30;99.90
6756;DHT22;3415;51.148;7.014;2024-01-07T02:04:46;2.20;99.90
6756;DHT22;3415;51.148;7.014;2024-01-07T02:07:12;2.20;99.90
6756;DHT22;3415;51.148;7.014;2024-01-07T02:09:39;2.20;99.90
6756;DHT22;3415;51.148;7.014;2024-01-07T02:12:07;2.20;99.90
6756;DHT22;3415;51.148;7.014;2024-01-07T02:14:38;2.20;99.90
6756;DHT22;3415;51.148;7.014;2024-01-07T02:17:05;2.20;99.90
6756;DHT22;3415;51.148;7.014;2024-01-07T02:19:32;2.30;99.90
6756;DHT22;3415;51.148;7.014;2024-01-07T02:21:59;2.30;99.90
6756;DHT22;3415;51.148;7.014;2024-01-07T02:24:27;2.30;99.90
6756;DHT22;3415;51.148;7.014;2024-01-07T02:26:56;2.30;99.90
6756;DHT22;3415;51.148;7.014;2024-01-07T02:29:22;2.30;99.90
6756;DHT22;3415;51.148;7.014;2024-01-07T02:34:16;2.20;99.90
6756;DHT22;3415;51.148;7.014;2024-01-07T02:36:43;2.30;99.90
6756;DHT22;3415;51.148;7.014;2024-01-07T02:39:10;2.20;99.90
6756;DHT22;3415;51.148;7.014;2024-01-07T02:41:38;2.20;99.90
6756;DHT22;3415;51.148;7.014;2024-01-07T02:44:05;2.30;99.90
6756;DHT22;3415;51.148;7.014;2024-01-07T02:46:32;2.20;99.90
6756;DHT22;3415;51.148;7.014;2024-01-07T02:48:58;2.30;99.90
6756;DHT22;3415;51.148;7.014;2024-01-07T02:51:25;2.30;99.90
6756;DHT22;3415;51.148;7.014;2024-01-07T02:53:52;2.30;99.90
6756;DHT22;3415;51.148;7.014;2024-01-07T02:56:19;2.20;99.90
6756;DHT22;3415;51.148;7.014;2024-01-07T02:58:47;2.20;99.90
6756;DHT22;3415;51.148;7.014;2024-01-07T03:01:14;2.10;99.90
6756;DHT22;3415;51.148;7.014;2024-01-07T03:03:41;2.20;99.90
6756;DHT22;3415;51.148;7.014;2024-01-07T03:06:08;2.10;99.90
6756;DHT22;3415;51.148;7.014;2024-01-07T03:08:35;2.10;99.90
6756;DHT22;3415;51.148;7.014;2024-01-07T03:11:04;2.10;99.90
6756;DHT22;3415;51.148;7.014;2024-01-07T03:13:32;2.10;99.90
6756;DHT22;3415;51.148;7.014;2024-01-07T03:16:00;2.10;99.90
6756;DHT22;3415;51.148;7.014;2024-01-07T03:18:27;2.00;99.90
6756;DHT22;3415;51.148;7.014;2024-01-07T03:20:54;2.10;99.90
6756;DHT22;3415;51.148;7.014;2024-01-07T03:23:21;2.10;99.90
6756;DHT22;3415;51.148;7.014;2024-01-07T03:25:48;2.10;99.90
6756;DHT22;3415;51.148;7.014;2024-01-07T03:28:15;2.30;99.90
6756;DHT22;3415;51.148;7.014;2024-01-07T03:30:42;2.10;99.90
6756;DHT22;3415;51.148;7.014;2024-01-07T03:33:10;2.10;99.90
6756;DHT22;3415;51.148;7.014;2024-01-07T03:35:37;2.10;99.90
6756;DHT22;3415;51.148;7.014;2024-01-07T03:38:04;2.10;99.90
6756;DHT22;3415;51.148;7.014;2024-01-07T03:40:31;2.10;99.90
6756;DHT22;3415;51.148;7.014;2024-01-07T03:45:25;2.00;99.90
6756;DHT22;3415;51.148;7.014;2024-01-07T03:47:52;2.00;99.90
6756;DHT22;3415;51.148;7.014;2024-01-07T03:50:20;1.90;99.90
6756;DHT22;3415;51.148;7.014;2024-01-07T03:52:47;2.00;99.90
6756;DHT22;3415;51.148;7.014;2024-01-07T03:57:41;2.00;99.90
6756;DHT22;3415;51.148;7.014;2024-01-07T04:00:09;2.10;99.90
6756;DHT22;3415;51.148;7.014;2024-01-07T04:02:36;2.10;99.90
6756;DHT22;3415;51.148;7.014;2024-01-07T04:05:04;2.10;99.90
6756;DHT22;3415;51.148;7.014;2024-01-07T04:07:32;2.00;99.90
6756;DHT22;3415;51.148;7.014;2024-01-07T04:09:59;2.00;99.90
6756;DHT22;3415;51.148;7.014;2024-01-07T04:12:26;2.00;99.90
6756;DHT22;3415;51.148;7.014;2024-01-07T04:14:52;2.00;99.90
6756;DHT22;3415;51.148;7.014;2024-01-07T04:17:19;2.10;99.90
6756;DHT22;3415;51.148;7.014;2024-01-07T04:19:46;1.90;99.90
6756;DHT22;3415;51.148;7.014;2024-01-07T04:22:13;1.90;99.90
6756;DHT22;3415;51.148;7.014;2024-01-07T04:24:42;1.90;99.90
6756;DHT22;3415;51.148;7.014;2024-01-07T04:27:08;1.90;99.90
6756;DHT22;3415;51.148;7.014;2024-01-07T04:29:35;1.90;99.90
6756;DHT22;3415;51.148;7.014;2024-01-07T04:34:30;1.90;99.90
6756;DHT22;3415;51.148;7.014;2024-01-07T04:39:24;1.90;99.90
6756;DHT22;3415;51.148;7.014;2024-01-07T04:41:52;1.80;99.90
6756;DHT22;3415;51.148;7.014;2024-01-07T04:44:19;1.90;99.90
6756;DHT22;3415;51.148;7.014;2024-01-07T04:46:47;1.90;99.90
6756;DHT22;3415;51.148;7.014;2024-01-07T04:49:15;1.90;99.90
6756;DHT22;3415;51.148;7.014;2024-01-07T04:51:41;1.80;99.90
6756;DHT22;3415;51.148;7.014;2024-01-07T04:54:08;1.80;99.90
6756;DHT22;3415;51.148;7.014;2024-01-07T04:56:35;1.80;99.90
6756;DHT22;3415;51.148;7.014;2024-01-07T04:59:03;1.70;99.90
6756;DHT22;3415;51.148;7.014;2024-01-07T05:01:32;1.70;99.90
6756;DHT22;3415;51.148;7.014;2024-01-07T05:03:59;1.70;99.90
6756;DHT22;3415;51.148;7.014;2024-01-07T05:06:26;1.70;99.90
6756;DHT22;3415;51.148;7.014;2024-01-07T05:08:53;1.70;99.90
6756;DHT22;3415;51.148;7.014;2024-01-07T05:11:20;1.70;99.90
6756;DHT22;3415;51.148;7.014;2024-01-07T05:13:46;1.60;99.90
6756;DHT22;3415;51.148;7.014;2024-01-07T05:16:19;1.60;99.90
6756;DHT22;3415;51.148;7.014;2024-01-07T05:18:46;1.60;99.90
6756;DHT22;3415;51.148;7.014;2024-01-07T05:21:14;1.60;99.90
6756;DHT22;3415;51.148;7.014;2024-01-07T05:23:41;1.60;99.90
6756;DHT22;3415;51.148;7.014;2024-01-07T05:26:08;1.50;99.90
6756;DHT22;3415;51.148;7.014;2024-01-07T05:28:36;1.60;99.90
6756;DHT22;3415;51.148;7.014;2024-01-07T05:31:03;1.60;99.90
6756;DHT22;3415;51.148;7.014;2024-01-07T05:33:31;1.60;99.90
6756;DHT22;3415;51.148;7.014;2024-01-07T05:35:58;1.60;99.90
6756;DHT22;3415;51.148;7.014;2024-01-07T05:38:25;1.60;99.90
6756;DHT22;3415;51.148;7.014;2024-01-07T05:40:52;1.70;99.90
6756;DHT22;3415;51.148;7.014;2024-01-07T05:43:19;1.60;99.90
6756;DHT22;3415;51.148;7.014;2024-01-07T05:45:46;1.60;99.90
6756;DHT22;3415;51.148;7.014;2024-01-07T05:48:13;1.60;99.90
6756;DHT22;3415;51.148;7.014;2024-01-07T05:50:41;1.60;99.90
6756;DHT22;3415;51.148;7.014;2024-01-07T05:53:08;1.40;99.90
6756;DHT22;3415;51.148;7.014;2024-01-07T05:55:35;1.40;99.90
6756;DHT22;3415;51.148;7.014;2024-01-07T05:58:01;1.40;99.90
6756;DHT22;3415;51.148;7.014;2024-01-07T06:00:28;1.50;99.90
6756;DHT22;3415;51.148;7.014;2024-01-07T06:02:55;1.60;99.90
6756;DHT22;3415;51.148;7.014;2024-01-07T06:05:23;1.40;99.90
6756;DHT22;3415;51.148;7.014;2024-01-07T06:07:51;1.40;99.90
6756;DHT22;3415;51.148;7.014;2024-01-07T06:10:18;1.50;99.90
6756;DHT22;3415;51.148;7.014;2024-01-07T06:12:44;1.50;99.90
6756;DHT22;3415;51.148;7.014;2024-01-07T06:15:11;1.50;99.90
6756;DHT22;3415;51.148;7.014;2024-01-07T06:17:38;1.50;99.90
6756;DHT22;3415;51.148;7.014;2024-01-07T06:20:06;1.50;99.90
6756;DHT22;3415;51.148;7.014;2024-01-07T06:22:33;1.40;99.90
6756;DHT22;3415;51.148;7.014;2024-01-07T06:25:02;1.40;99.90
6756;DHT22;3415;51.148;7.014;2024-01-07T06:29:56;1.40;99.90
6756;DHT22;3415;51.148;7.014;2024-01-07T06:32:22;1.40;99.90
6756;DHT22;3415;51.148;7.014;2024-01-07T06:34:50;1.40;99.90
6756;DHT22;3415;51.148;7.014;2024-01-07T06:37:17;1.40;99.90
6756;DHT22;3415;51.148;7.014;2024-01-07T06:39:44;1.40;99.90
6756;DHT22;3415;51.148;7.014;2024-01-07T06:42:12;1.40;99.90
6756;DHT22;3415;51.148;7.014;2024-01-07T06:44:39;1.40;99.90
6756;DHT22;3415;51.148;7.014;2024-01-07T06:47:07;1.40;99.90
6756;DHT22;3415;51.148;7.014;2024-01-07T06:49:33;1.40;99.90
6756;DHT22;3415;51.148;7.014;2024-01-07T06:52:00;1.30;99.90
6756;DHT22;3415;51.148;7.014;2024-01-07T06:54:27;1.30;99.90
6756;DHT22;3415;51.148;7.014;2024-01-07T06:56:54;1.30;99.90
6756;DHT22;3415;51.148;7.014;2024-01-07T06:59:22;1.40;99.90
6756;DHT22;3415;51.148;7.014;2024-01-07T07:01:49;1.40;99.90
6756;DHT22;3415;51.148;7.014;2024-01-07T07:04:16;1.40;99.90
6756;DHT22;3415;51.148;7.014;2024-01-07T07:06:43;1.40;99.90
6756;DHT22;3415;51.148;7.014;2024-01-07T07:09:10;1.30;99.90
6756;DHT22;3415;51.148;7.014;2024-01-07T07:11:38;1.30;99.90
6756;DHT22;3415;51.148;7.014;2024-01-07T07:16:33;1.40;99.90
6756;DHT22;3415;51.148;7.014;2024-01-07T07:19:00;1.30;99.90
6756;DHT22;3415;51.148;7.014;2024-01-07T07:21:27;1.30;99.90
6756;DHT22;3415;51.148;7.014;2024-01-07T07:23:54;1.30;99.90
6756;DHT22;3415;51.148;7.014;2024-01-07T07:28:48;1.40;99.90
6756;DHT22;3415;51.148;7.014;2024-01-07T07:33:44;1.20;99.90
6756;DHT22;3415;51.148;7.014;2024-01-07T07:36:11;1.30;99.90
6756;DHT22;3415;51.148;7.014;2024-01-07T07:38:37;1.30;99.90
6756;DHT22;3415;51.148;7.014;2024-01-07T07:41:04;1.30;99.90
6756;DHT22;3415;51.148;7.014;2024-01-07T07:43:33;1.50;99.90
6756;DHT22;3415;51.148;7.014;2024-01-07T07:46:00;1.30;99.90
6756;DHT22;3415;51.148;7.014;2024-01-07T07:48:28;1.30;99.90
6756;DHT22;3415;51.148;7.014;2024-01-07T07:50:57;1.30;99.90
6756;DHT22;3415;51.148;7.014;2024-01-07T07:53:24;1.30;99.90
6756;DHT22;3415;51.148;7.014;2024-01-07T07:55:51;1.30;99.90
6756;DHT22;3415;51.148;7.014;2024-01-07T07:58:18;1.40;99.90
6756;DHT22;3415;51.148;7.014;2024-01-07T08:00:45;1.20;99.90
6756;DHT22;3415;51.148;7.014;2024-01-07T08:03:12;1.20;99.90
6756;DHT22;3415;51.148;7.014;2024-01-07T08:05:39;1.30;99.90
6756;DHT22;3415;51.148;7.014;2024-01-07T08:08:08;1.30;99.90
6756;DHT22;3415;51.148;7.014;2024-01-07T08:10:35;1.30;99.90
6756;DHT22;3415;51.148;7.014;2024-01-07T08:13:02;1.30;99.90
6756;DHT22;3415;51.148;7.014;2024-01-07T08:15:29;1.30;99.90
6756;DHT22;3415;51.148;7.014;2024-01-07T08:17:56;1.30;99.90
6756;DHT22;3415;51.148;7.014;2024-01-07T08:20:22;1.30;99.90
6756;DHT22;3415;51.148;7.014;2024-01-07T08:22:49;1.20;99.90
6756;DHT22;3415;51.148;7.014;2024-01-07T08:25:18;1.20;99.90
6756;DHT22;3415;51.148;7.014;2024-01-07T08:27:45;1.20;99.90
6756;DHT22;3415;51.148;7.014;2024-01-07T08:30:13;1.50;99.90
6756;DHT22;3415;51.148;7.014;2024-01-07T08:32:40;1.20;99.90
6756;DHT22;3415;51.148;7.014;2024-01-07T08:35:07;1.20;99.90
6756;DHT22;3415;51.148;7.014;2024-01-07T08:37:34;1.20;99.90
6756;DHT22;3415;51.148;7.014;2024-01-07T08:40:01;1.20;99.90
6756;DHT22;3415;51.148;7.014;2024-01-07T08:42:30;1.20;99.90
6756;DHT22;3415;51.148;7.014;2024-01-07T08:44:57;1.30;99.90
6756;DHT22;3415;51.148;7.014;2024-01-07T08:47:26;1.30;99.90
6756;DHT22;3415;51.148;7.014;2024-01-07T08:49:54;1.30;99.90
6756;DHT22;3415;51.148;7.014;2024-01-07T08:52:20;1.20;99.90
6756;DHT22;3415;51.148;7.014;2024-01-07T08:54:48;1.20;99.90
6756;DHT22;3415;51.148;7.014;2024-01-07T08:57:14;1.30;99.90
6756;DHT22;3415;51.148;7.014;2024-01-07T08:59:43;1.30;99.90
6756;DHT22;3415;51.148;7.014;2024-01-07T09:02:09;1.30;94.60
6756;DHT22;3415;51.148;7.014;2024-01-07T09:04:36;1.30;95.30
6756;DHT22;3415;51.148;7.014;2024-01-07T09:07:03;1.30;75.10
6756;DHT22;3415;51.148;7.014;2024-01-07T09:09:30;1.30;63.10
6756;DHT22;3415;51.148;7.014;2024-01-07T09:11:57;1.40;41.60
6756;DHT22;3415;51.148;7.014;2024-01-07T09:14:25;1.30;33.60
6756;DHT22;3415;51.148;7.014;2024-01-07T09:16:54;1.30;36.60
6756;DHT22;3415;51.148;7.014;2024-01-07T09:19:20;1.40;36.30
6756;DHT22;3415;51.148;7.014;2024-01-07T09:21:47;1.40;36.30
6756;DHT22;3415;51.148;7.014;2024-01-07T09:24:14;1.30;35.90
6756;DHT22;3415;51.148;7.014;2024-01-07T09:26:42;1.50;14.00
6756;DHT22;3415;51.148;7.014;2024-01-07T09:29:09;1.30;1.00
6756;DHT22;3415;51.148;7.014;2024-01-07T09:31:36;1.10;1.00
6756;DHT22;3415;51.148;7.014;2024-01-07T09:34:04;1.20;1.00
6756;DHT22;3415;51.148;7.014;2024-01-07T09:36:32;1.10;1.00
6756;DHT22;3415;51.148;7.014;2024-01-07T09:39:02;1.10;1.00
6756;DHT22;3415;51.148;7.014;2024-01-07T09:41:32;1.10;1.00
6756;DHT22;3415;51.148;7.014;2024-01-07T09:44:00;1.10;1.00
6756;DHT22;3415;51.148;7.014;2024-01-07T09:46:29;1.20;1.00
6756;DHT22;3415;51.148;7.014;2024-01-07T09:48:57;1.10;1.00
6756;DHT22;3415;51.148;7.014;2024-01-07T09:51:29;1.10;1.00
6756;DHT22;3415;51.148;7.014;2024-01-07T09:54:02;1.10;1.00
6756;DHT22;3415;51.148;7.014;2024-01-07T09:56:36;1.00;1.00
6756;DHT22;3415;51.148;7.014;2024-01-07T09:59:06;1.00;1.00
6756;DHT22;3415;51.148;7.014;2024-01-07T10:01:34;1.00;1.00
6756;DHT22;3415;51.148;7.014;2024-01-07T10:06:31;0.90;1.00
6756;DHT22;3415;51.148;7.014;2024-01-07T10:08:59;1.00;1.00
6756;DHT22;3415;51.148;7.014;2024-01-07T10:11:25;1.00;1.00
6756;DHT22;3415;51.148;7.014;2024-01-07T10:13:53;1.00;1.00
6756;DHT22;3415;51.148;7.014;2024-01-07T10:16:20;1.00;1.00
6756;DHT22;3415;51.148;7.014;2024-01-07T10:18:46;1.00;1.00
6756;DHT22;3415;51.148;7.014;2024-01-07T10:21:13;0.90;1.00
6756;DHT22;3415;51.148;7.014;2024-01-07T10:23:41;0.90;1.00
6756;DHT22;3415;51.148;7.014;2024-01-07T10:26:08;1.00;1.00
6756;DHT22;3415;51.148;7.014;2024-01-07T10:28:35;1.00;1.00
6756;DHT22;3415;51.148;7.014;2024-01-07T10:31:03;1.10;1.00
6756;DHT22;3415;51.148;7.014;2024-01-07T10:33:31;1.20;1.00
6756;DHT22;3415;51.148;7.014;2024-01-07T10:36:02;1.10;1.00
6756;DHT22;3415;51.148;7.014;2024-01-07T10:38:30;1.10;1.00
6756;DHT22;3415;51.148;7.014;2024-01-07T10:40:59;1.10;1.00
6756;DHT22;3415;51.148;7.014;2024-01-07T10:43:29;1.10;1.00
6756;DHT22;3415;51.148;7.014;2024-01-07T10:46:00;1.20;1.00
6756;DHT22;3415;51.148;7.014;2024-01-07T10:48:30;1.20;1.00
6756;DHT22;3415;51.148;7.014;2024-01-07T10:50:59;1.00;1.00
6756;DHT22;3415;51.148;7.014;2024-01-07T10:53:28;0.90;1.00
6756;DHT22;3415;51.148;7.014;2024-01-07T10:56:03;0.90;1.00
6756;DHT22;3415;51.148;7.014;2024-01-07T10:58:31;0.90;1.00
6756;DHT22;3415;51.148;7.014;2024-01-07T11:00:58;1.00;1.00
6756;DHT22;3415;51.148;7.014;2024-01-07T11:03:33;1.00;1.00
6756;DHT22;3415;51.148;7.014;2024-01-07T11:06:07;1.10;1.00
6756;DHT22;3415;51.148;7.014;2024-01-07T11:08:39;1.10;1.00
6756;DHT22;3415;51.148;7.014;2024-01-07T11:11:13;0.90;1.00
6756;DHT22;3415;51.148;7.014;2024-01-07T11:13:42;1.00;1.00
6756;DHT22;3415;51.148;7.014;2024-01-07T11:16:09;0.90;1.00
6756;DHT22;3415;51.148;7.014;2024-01-07T11:18:38;0.90;1.00
6756;DHT22;3415;51.148;7.014;2024-01-07T11:21:05;0.80;1.00
6756;DHT22;3415;51.148;7.014;2024-01-07T11:23:33;0.80;1.00
6756;DHT22;3415;51.148;7.014;2024-01-07T11:28:47;0.70;1.00
6756;DHT22;3415;51.148;7.014;2024-01-07T11:31:15;0.80;1.00
6756;DHT22;3415;51.148;7.014;2024-01-07T11:33:42;0.70;1.00
6756;DHT22;3415;51.148;7.014;2024-01-07T11:36:11;0.70;1.00
6756;DHT22;3415;51.148;7.014;2024-01-07T11:38:41;0.70;1.00
6756;DHT22;3415;51.148;7.014;2024-01-07T11:41:10;0.70;1.00
6756;DHT22;3415;51.148;7.014;2024-01-07T11:43:37;0.80;1.00
6756;DHT22;3415;51.148;7.014;2024-01-07T11:46:06;0.80;1.00
6756;DHT22;3415;51.148;7.014;2024-01-07T11:48:33;0.80;1.00
6756;DHT22;3415;51.148;7.014;2024-01-07T11:50:59;0.70;1.00
6756;DHT22;3415;51.148;7.014;2024-01-07T11:53:27;0.70;1.00
6756;DHT22;3415;51.148;7.014;2024-01-07T11:55:54;0.80;1.00
6756;DHT22;3415;51.148;7.014;2024-01-07T11:58:21;0.70;1.00
6756;DHT22;3415;51.148;7.014;2024-01-07T12:00:47;0.70;1.00
6756;DHT22;3415;51.148;7.014;2024-01-07T12:03:16;0.70;1.00
6756;DHT22;3415;51.148;7.014;2024-01-07T12:05:44;0.70;1.00
6756;DHT22;3415;51.148;7.014;2024-01-07T12:08:13;0.70;1.00
6756;DHT22;3415;51.148;7.014;2024-01-07T12:10:41;0.70;1.00
6756;DHT22;3415;51.148;7.014;2024-01-07T12:13:08;0.80;1.00
6756;DHT22;3415;51.148;7.014;2024-01-07T12:15:37;0.80;1.00
6756;DHT22;3415;51.148;7.014;2024-01-07T12:18:04;0.80;1.00
6756;DHT22;3415;51.148;7.014;2024-01-07T12:20:33;0.80;1.00
6756;DHT22;3415;51.148;7.014;2024-01-07T12:23:06;0.80;1.00
6756;DHT22;3415;51.148;7.014;2024-01-07T12:25:33;0.70;1.00
6756;DHT22;3415;51.148;7.014;2024-01-07T12:28:00;0.70;1.00
6756;DHT22;3415;51.148;7.014;2024-01-07T12:30:27;0.60;1.00
6756;DHT22;3415;51.148;7.014;2024-01-07T12:32:54;0.60;1.00
6756;DHT22;3415;51.148;7.014;2024-01-07T12:35:21;0.60;1.00
6756;DHT22;3415;51.148;7.014;2024-01-07T12:37:49;0.60;1.00
6756;DHT22;3415;51.148;7.014;2024-01-07T12:40:16;0.60;1.00
6756;DHT22;3415;51.148;7.014;2024-01-07T12:42:42;0.60;1.00
6756;DHT22;3415;51.148;7.014;2024-01-07T12:45:12;0.60;1.00
6756;DHT22;3415;51.148;7.014;2024-01-07T12:47:40;0.50;1.00
6756;DHT22;3415;51.148;7.014;2024-01-07T12:50:07;0.40;1.00
6756;DHT22;3415;51.148;7.014;2024-01-07T12:52:36;0.40;1.00
6756;DHT22;3415;51.148;7.014;2024-01-07T12:55:04;0.40;1.00
6756;DHT22;3415;51.148;7.014;2024-01-07T12:57:31;0.40;1.00
6756;DHT22;3415;51.148;7.014;2024-01-07T12:59:58;0.50;1.00
6756;DHT22;3415;51.148;7.014;2024-01-07T13:02:25;0.40;1.00
6756;DHT22;3415;51.148;7.014;2024-01-07T13:04:52;0.50;1.00
6756;DHT22;3415;51.148;7.014;2024-01-07T13:09:46;0.60;1.00
6756;DHT22;3415;51.148;7.014;2024-01-07T13:12:14;0.60;1.00
6756;DHT22;3415;51.148;7.014;2024-01-07T13:14:41;0.40;1.00
6756;DHT22;3415;51.148;7.014;2024-01-07T13:17:08;0.50;1.00
6756;DHT22;3415;51.148;7.014;2024-01-07T13:19:35;0.50;1.00
6756;DHT22;3415;51.148;7.014;2024-01-07T13:22:02;0.40;1.00
6756;DHT22;3415;51.148;7.014;2024-01-07T13:24:29;0.40;1.00
6756;DHT22;3415;51.148;7.014;2024-01-07T13:26:55;0.30;1.00
6756;DHT22;3415;51.148;7.014;2024-01-07T13:29:24;0.10;1.00
6756;DHT22;3415;51.148;7.014;2024-01-07T13:31:51;0.10;1.00
6756;DHT22;3415;51.148;7.014;2024-01-07T13:34:17;0.10;1.00
6756;DHT22;3415;51.148;7.014;2024-01-07T13:36:44;0.20;1.00
6756;DHT22;3415;51.148;7.014;2024-01-07T13:39:12;0.20;1.00
6756;DHT22;3415;51.148;7.014;2024-01-07T13:41:41;0.20;1.00
6756;DHT22;3415;51.148;7.014;2024-01-07T13:44:08;0.20;1.00
6756;DHT22;3415;51.148;7.014;2024-01-07T13:46:44;0.20;1.00
6756;DHT22;3415;51.148;7.014;2024-01-07T13:49:11;0.20;1.00
6756;DHT22;3415;51.148;7.014;2024-01-07T13:51:38;0.20;1.00
6756;DHT22;3415;51.148;7.014;2024-01-07T13:54:05;0.20;1.00
6756;DHT22;3415;51.148;7.014;2024-01-07T13:56:32;0.30;1.00
6756;DHT22;3415;51.148;7.014;2024-01-07T13:59:01;0.30;1.00
6756;DHT22;3415;51.148;7.014;2024-01-07T14:01:28;0.20;1.00
6756;DHT22;3415;51.148;7.014;2024-01-07T14:03:56;0.20;1.00
6756;DHT22;3415;51.148;7.014;2024-01-07T14:06:23;0.20;1.00
6756;DHT22;3415;51.148;7.014;2024-01-07T14:11:18;0.20;1.00
6756;DHT22;3415;51.148;7.014;2024-01-07T14:13:45;0.20;1.00
6756;DHT22;3415;51.148;7.014;2024-01-07T14:16:12;0.00;1.00
6756;DHT22;3415;51.148;7.014;2024-01-07T14:18:39;-0.10;1.00
6756;DHT22;3415;51.148;7.014;2024-01-07T14:21:07;-0.10;1.00
6756;DHT22;3415;51.148;7.014;2024-01-07T14:26:02;-0.10;1.00
6756;DHT22;3415;51.148;7.014;2024-01-07T14:28:29;-0.10;1.00
6756;DHT22;3415;51.148;7.014;2024-01-07T14:30:56;-0.10;1.00
6756;DHT22;3415;51.148;7.014;2024-01-07T14:33:23;-0.10;1.00
6756;DHT22;3415;51.148;7.014;2024-01-07T14:35:50;-0.10;1.00
6756;DHT22;3415;51.148;7.014;2024-01-07T14:38:18;-0.10;1.00
6756;DHT22;3415;51.148;7.014;2024-01-07T14:40:45;-0.20;1.00
6756;DHT22;3415;51.148;7.014;2024-01-07T14:43:12;-0.20;1.00
6756;DHT22;3415;51.148;7.014;2024-01-07T14:45:39;-0.20;1.00
6756;DHT22;3415;51.148;7.014;2024-01-07T14:48:06;-0.20;1.00
6756;DHT22;3415;51.148;7.014;2024-01-07T14:50:34;-0.10;1.00
6756;DHT22;3415;51.148;7.014;2024-01-07T14:53:00;-0.10;1.00
6756;DHT22;3415;51.148;7.014;2024-01-07T14:55:29;-0.10;1.00
6756;DHT22;3415;51.148;7.014;2024-01-07T14:57:56;-0.10;1.00
6756;DHT22;3415;51.148;7.014;2024-01-07T15:00:23;-0.20;1.00
6756;DHT22;3415;51.148;7.014;2024-01-07T15:02:50;-0.20;1.00
6756;DHT22;3415;51.148;7.014;2024-01-07T15:05:17;-0.10;1.00
6756;DHT22;3415;51.148;7.014;2024-01-07T15:07:44;-0.10;1.00
6756;DHT22;3415;51.148;7.014;2024-01-07T15:10:15;-0.10;1.00
6756;DHT22;3415;51.148;7.014;2024-01-07T15:12:44;-0.10;1.00
6756;DHT22;3415;51.148;7.014;2024-01-07T15:15:11;-0.10;1.00
6756;DHT22;3415;51.148;7.014;2024-01-07T15:17:37;0.00;1.00
6756;DHT22;3415;51.148;7.014;2024-01-07T15:20:05;-0.20;1.00
6756;DHT22;3415;51.148;7.014;2024-01-07T15:22:33;-0.20;1.00
6756;DHT22;3415;51.148;7.014;2024-01-07T15:24:59;-0.20;1.00
6756;DHT22;3415;51.148;7.014;2024-01-07T15:27:26;-0.20;1.00
6756;DHT22;3415;51.148;7.014;2024-01-07T15:29:56;-0.20;1.00
6756;DHT22;3415;51.148;7.014;2024-01-07T15:34:52;-0.30;1.00
6756;DHT22;3415;51.148;7.014;2024-01-07T15:37:18;2.20;1.00
6756;DHT22;3415;51.148;7.014;2024-01-07T15:39:45;-0.30;1.00
6756;DHT22;3415;51.148;7.014;2024-01-07T15:42:12;-0.30;1.00
6756;DHT22;3415;51.148;7.014;2024-01-07T15:47:07;-0.30;1.00
6756;DHT22;3415;51.148;7.014;2024-01-07T15:49:34;-0.30;1.00
6756;DHT22;3415;51.148;7.014;2024-01-07T15:52:01;-0.20;1.00
6756;DHT22;3415;51.148;7.014;2024-01-07T15:54:28;-0.20;1.00
6756;DHT22;3415;51.148;7.014;2024-01-07T16:01:50;-0.20;1.00
6756;DHT22;3415;51.148;7.014;2024-01-07T16:04:18;-0.20;1.00
6756;DHT22;3415;51.148;7.014;2024-01-07T16:09:14;-0.20;1.00
6756;DHT22;3415;51.148;7.014;2024-01-07T16:11:41;-0.20;1.00
6756;DHT22;3415;51.148;7.014;2024-01-07T16:14:08;-0.10;1.00
6756;DHT22;3415;51.148;7.014;2024-01-07T16:16:35;-0.10;1.00
6756;DHT22;3415;51.148;7.014;2024-01-07T16:19:07;-0.10;1.00
6756;DHT22;3415;51.148;7.014;2024-01-07T16:21:36;-0.10;1.00
6756;DHT22;3415;51.148;7.014;2024-01-07T16:24:03;-0.20;1.00
6756;DHT22;3415;51.148;7.014;2024-01-07T16:26:30;-0.20;1.00
6756;DHT22;3415;51.148;7.014;2024-01-07T16:28:56;-0.20;1.00
6756;DHT22;3415;51.148;7.014;2024-01-07T16:31:23;-0.20;1.00
6756;DHT22;3415;51.148;7.014;2024-01-07T16:33:50;-0.20;1.00
6756;DHT22;3415;51.148;7.014;2024-01-07T16:36:17;-0.20;1.00
6756;DHT22;3415;51.148;7.014;2024-01-07T16:38:46;-0.20;1.00
6756;DHT22;3415;51.148;7.014;2024-01-07T16:41:13;-0.10;1.00
6756;DHT22;3415;51.148;7.014;2024-01-07T16:43:40;-0.10;1.00
6756;DHT22;3415;51.148;7.014;2024-01-07T16:46:07;-0.10;1.00
6756;DHT22;3415;51.148;7.014;2024-01-07T16:51:01;0.10;1.00
6756;DHT22;3415;51.148;7.014;2024-01-07T16:55:57;-0.10;1.00
6756;DHT22;3415;51.148;7.014;2024-01-07T16:58:25;-0.10;1.00
6756;DHT22;3415;51.148;7.014;2024-01-07T17:00:52;-0.10;1.00
6756;DHT22;3415;51.148;7.014;2024-01-07T17:03:22;-0.10;1.00
6756;DHT22;3415;51.148;7.014;2024-01-07T17:05:49;-0.10;1.00
6756;DHT22;3415;51.148;7.014;2024-01-07T17:08:17;-0.10;1.00
6756;DHT22;3415;51.148;7.014;2024-01-07T17:10:44;0.00;1.00
6756;DHT22;3415;51.148;7.014;2024-01-07T17:13:13;0.00;1.00
6756;DHT22;3415;51.148;7.014;2024-01-07T17:15:40;0.00;1.00
6756;DHT22;3415;51.148;7.014;2024-01-07T17:18:07;0.00;1.00
6756;DHT22;3415;51.148;7.014;2024-01-07T17:20:35;0.00;1.00
6756;DHT22;3415;51.148;7.014;2024-01-07T17:23:04;0.00;1.00